sensor_id;sensor_type;location;lat;lon;timestamp;P1;durP1;ratioP1;P2;durP2;ratioP2
19059;SDS011;9663;48.996;8.334;2023-09-30T00:00:01;3.22;;;1.02;;
19059;SDS011;9663;48.996;8.334;2023-09-30T00:02:30;3.60;;;1.10;;
19059;SDS011;9663;48.996;8.334;2023-09-30T00:04:56;2.55;;;0.90;;
19059;SDS011;9663;48.996;8.334;2023-09-30T00:07:21;2.25;;;0.80;;
19059;SDS011;9663;48.996;8.334;2023-09-30T00:09:47;3.58;;;1.13;;
19059;SDS011;9663;48.996;8.334;2023-09-30T00:12:12;3.08;;;0.70;;
19059;SDS011;9663;48.996;8.334;2023-09-30T00:14:38;3.17;;;0.90;;
19059;SDS011;9663;48.996;8.334;2023-09-30T00:17:04;2.38;;;0.90;;
19059;SDS011;9663;48.996;8.334;2023-09-30T00:19:30;2.58;;;0.90;;
19059;SDS011;9663;48.996;8.334;2023-09-30T00:21:58;2.85;;;1.00;;
19059;SDS011;9663;48.996;8.334;2023-09-30T00:24:25;2.58;;;0.80;;
19059;SDS011;9663;48.996;8.334;2023-09-30T00:26:51;2.20;;;0.75;;
19059;SDS011;9663;48.996;8.334;2023-09-30T00:29:17;3.15;;;0.90;;
19059;SDS011;9663;48.996;8.334;2023-09-30T00:31:43;3.60;;;0.93;;
19059;SDS011;9663;48.996;8.334;2023-09-30T00:34:09;2.65;;;0.85;;
19059;SDS011;9663;48.996;8.334;2023-09-30T00:36:35;2.92;;;0.90;;
19059;SDS011;9663;48.996;8.334;2023-09-30T00:39:01;2.80;;;0.88;;
19059;SDS011;9663;48.996;8.334;2023-09-30T00:41:26;2.42;;;0.80;;
19059;SDS011;9663;48.996;8.334;2023-09-30T00:43:52;2.38;;;0.70;;
19059;SDS011;9663;48.996;8.334;2023-09-30T00:46:31;2.10;;;0.80;;
19059;SDS011;9663;48.996;8.334;2023-09-30T00:48:58;2.72;;;0.80;;
19059;SDS011;9663;48.996;8.334;2023-09-30T00:51:26;2.25;;;0.80;;
19059;SDS011;9663;48.996;8.334;2023-09-30T00:53:54;4.72;;;0.90;;
19059;SDS011;9663;48.996;8.334;2023-09-30T00:56:25;3.22;;;1.10;;
19059;SDS011;9663;48.996;8.334;2023-09-30T00:58:53;2.53;;;0.68;;
19059;SDS011;9663;48.996;8.334;2023-09-30T01:01:20;2.67;;;0.70;;
19059;SDS011;9663;48.996;8.334;2023-09-30T01:03:49;3.28;;;1.00;;
19059;SDS011;9663;48.996;8.334;2023-09-30T01:06:15;3.40;;;1.00;;
19059;SDS011;9663;48.996;8.334;2023-09-30T01:08:41;3.63;;;0.90;;
19059;SDS011;9663;48.996;8.334;2023-09-30T01:11:07;2.83;;;0.80;;
19059;SDS011;9663;48.996;8.334;2023-09-30T01:13:34;2.45;;;0.80;;
19059;SDS011;9663;48.996;8.334;2023-09-30T01:16:07;2.13;;;0.77;;
19059;SDS011;9663;48.996;8.334;2023-09-30T01:18:35;3.00;;;0.90;;
19059;SDS011;9663;48.996;8.334;2023-09-30T01:21:05;2.22;;;0.70;;
19059;SDS011;9663;48.996;8.334;2023-09-30T01:23:32;3.13;;;0.90;;
19059;SDS011;9663;48.996;8.334;2023-09-30T01:26:05;2.83;;;0.90;;
19059;SDS011;9663;48.996;8.334;2023-09-30T01:28:37;1.70;;;0.60;;
19059;SDS011;9663;48.996;8.334;2023-09-30T01:31:04;2.47;;;0.80;;
19059;SDS011;9663;48.996;8.334;2023-09-30T01:33:30;2.38;;;0.90;;
19059;SDS011;9663;48.996;8.334;2023-09-30T01:35:57;3.47;;;0.75;;
19059;SDS011;9663;48.996;8.334;2023-09-30T01:38:24;2.33;;;0.80;;
19059;SDS011;9663;48.996;8.334;2023-09-30T01:40:51;3.92;;;1.10;;
19059;SDS011;9663;48.996;8.334;2023-09-30T01:43:16;2.35;;;0.80;;
19059;SDS011;9663;48.996;8.334;2023-09-30T01:45:43;2.85;;;0.82;;
19059;SDS011;9663;48.996;8.334;2023-09-30T01:48:09;3.13;;;1.10;;
19059;SDS011;9663;48.996;8.334;2023-09-30T01:50:39;3.15;;;1.08;;
19059;SDS011;9663;48.996;8.334;2023-09-30T01:53:08;3.00;;;0.98;;
19059;SDS011;9663;48.996;8.334;2023-09-30T01:55:34;3.15;;;0.90;;
19059;SDS011;9663;48.996;8.334;2023-09-30T01:58:01;3.22;;;1.05;;
19059;SDS011;9663;48.996;8.334;2023-09-30T02:00:27;3.15;;;1.00;;
19059;SDS011;9663;48.996;8.334;2023-09-30T02:02:57;2.63;;;0.90;;
19059;SDS011;9663;48.996;8.334;2023-09-30T02:05:23;2.65;;;0.80;;
19059;SDS011;9663;48.996;8.334;2023-09-30T02:07:49;2.80;;;1.00;;
19059;SDS011;9663;48.996;8.334;2023-09-30T02:10:16;3.13;;;0.85;;
19059;SDS011;9663;48.996;8.334;2023-09-30T02:12:45;2.40;;;0.90;;
19059;SDS011;9663;48.996;8.334;2023-09-30T02:15:12;3.67;;;1.10;;
19059;SDS011;9663;48.996;8.334;2023-09-30T02:17:39;3.42;;;1.10;;
19059;SDS011;9663;48.996;8.334;2023-09-30T02:20:05;3.63;;;0.90;;
19059;SDS011;9663;48.996;8.334;2023-09-30T02:22:37;3.25;;;1.10;;
19059;SDS011;9663;48.996;8.334;2023-09-30T02:25:04;3.00;;;1.10;;
19059;SDS011;9663;48.996;8.334;2023-09-30T02:27:32;3.53;;;1.00;;
19059;SDS011;9663;48.996;8.334;2023-09-30T02:29:59;3.15;;;1.00;;
19059;SDS011;9663;48.996;8.334;2023-09-30T02:32:28;2.60;;;0.85;;
19059;SDS011;9663;48.996;8.334;2023-09-30T02:34:54;3.65;;;1.13;;
19059;SDS011;9663;48.996;8.334;2023-09-30T02:37:19;3.28;;;1.00;;
19059;SDS011;9663;48.996;8.334;2023-09-30T02:39:45;2.70;;;0.90;;
19059;SDS011;9663;48.996;8.334;2023-09-30T02:42:11;2.70;;;0.95;;
19059;SDS011;9663;48.996;8.334;2023-09-30T02:44:36;3.13;;;1.00;;
19059;SDS011;9663;48.996;8.334;2023-09-30T02:47:02;2.38;;;0.85;;
19059;SDS011;9663;48.996;8.334;2023-09-30T02:49:28;2.72;;;0.88;;
19059;SDS011;9663;48.996;8.334;2023-09-30T02:51:57;2.90;;;0.93;;
19059;SDS011;9663;48.996;8.334;2023-09-30T02:54:23;3.03;;;0.77;;
19059;SDS011;9663;48.996;8.334;2023-09-30T02:56:49;2.55;;;0.85;;
19059;SDS011;9663;48.996;8.334;2023-09-30T02:59:14;3.53;;;1.10;;
19059;SDS011;9663;48.996;8.334;2023-09-30T03:01:41;2.85;;;0.90;;
19059;SDS011;9663;48.996;8.334;2023-09-30T03:04:07;2.13;;;0.75;;
19059;SDS011;9663;48.996;8.334;2023-09-30T03:06:34;3.88;;;1.25;;
19059;SDS011;9663;48.996;8.334;2023-09-30T03:09:03;2.95;;;0.98;;
19059;SDS011;9663;48.996;8.334;2023-09-30T03:11:33;2.85;;;0.98;;
19059;SDS011;9663;48.996;8.334;2023-09-30T03:13:59;2.60;;;0.80;;
19059;SDS011;9663;48.996;8.334;2023-09-30T03:16:25;3.97;;;1.23;;
19059;SDS011;9663;48.996;8.334;2023-09-30T03:18:50;3.53;;;1.00;;
19059;SDS011;9663;48.996;8.334;2023-09-30T03:21:16;2.67;;;0.98;;
19059;SDS011;9663;48.996;8.334;2023-09-30T03:23:42;3.13;;;0.90;;
19059;SDS011;9663;48.996;8.334;2023-09-30T03:26:09;3.47;;;1.10;;
19059;SDS011;9663;48.996;8.334;2023-09-30T03:28:38;2.42;;;0.90;;
19059;SDS011;9663;48.996;8.334;2023-09-30T03:31:04;2.42;;;0.90;;
19059;SDS011;9663;48.996;8.334;2023-09-30T03:33:34;3.00;;;0.90;;
19059;SDS011;9663;48.996;8.334;2023-09-30T03:36:00;3.45;;;1.20;;
19059;SDS011;9663;48.996;8.334;2023-09-30T03:38:26;2.35;;;0.82;;
19059;SDS011;9663;48.996;8.334;2023-09-30T03:40:52;2.80;;;0.77;;
19059;SDS011;9663;48.996;8.334;2023-09-30T03:43:19;2.65;;;0.95;;
19059;SDS011;9663;48.996;8.334;2023-09-30T03:45:46;3.08;;;1.02;;
19059;SDS011;9663;48.996;8.334;2023-09-30T03:48:12;2.50;;;0.95;;
19059;SDS011;9663;48.996;8.334;2023-09-30T03:50:38;2.28;;;0.80;;
19059;SDS011;9663;48.996;8.334;2023-09-30T03:53:04;3.22;;;1.08;;
19059;SDS011;9663;48.996;8.334;2023-09-30T03:55:32;3.22;;;1.20;;
19059;SDS011;9663;48.996;8.334;2023-09-30T03:57:58;2.90;;;0.90;;
19059;SDS011;9663;48.996;8.334;2023-09-30T04:00:25;4.32;;;1.00;;
19059;SDS011;9663;48.996;8.334;2023-09-30T04:02:51;3.03;;;0.90;;
19059;SDS011;9663;48.996;8.334;2023-09-30T04:05:23;3.55;;;1.20;;
19059;SDS011;9663;48.996;8.334;2023-09-30T04:07:55;3.72;;;0.93;;
19059;SDS011;9663;48.996;8.334;2023-09-30T04:10:21;3.13;;;0.95;;
19059;SDS011;9663;48.996;8.334;2023-09-30T04:12:50;2.88;;;0.90;;
19059;SDS011;9663;48.996;8.334;2023-09-30T04:15:17;2.75;;;1.02;;
19059;SDS011;9663;48.996;8.334;2023-09-30T04:17:43;3.00;;;0.98;;
19059;SDS011;9663;48.996;8.334;2023-09-30T04:20:09;3.95;;;1.20;;
19059;SDS011;9663;48.996;8.334;2023-09-30T04:22:41;3.42;;;1.17;;
19059;SDS011;9663;48.996;8.334;2023-09-30T04:25:11;3.40;;;1.30;;
19059;SDS011;9663;48.996;8.334;2023-09-30T04:27:37;3.28;;;1.30;;
19059;SDS011;9663;48.996;8.334;2023-09-30T04:30:03;4.43;;;1.10;;
19059;SDS011;9663;48.996;8.334;2023-09-30T04:32:33;5.28;;;1.33;;
19059;SDS011;9663;48.996;8.334;2023-09-30T04:35:02;3.08;;;1.08;;
19059;SDS011;9663;48.996;8.334;2023-09-30T04:37:29;3.78;;;1.05;;
19059;SDS011;9663;48.996;8.334;2023-09-30T04:39:55;3.20;;;1.20;;
19059;SDS011;9663;48.996;8.334;2023-09-30T04:42:20;3.70;;;1.23;;
19059;SDS011;9663;48.996;8.334;2023-09-30T04:44:46;3.75;;;1.20;;
19059;SDS011;9663;48.996;8.334;2023-09-30T04:47:12;4.47;;;1.30;;
19059;SDS011;9663;48.996;8.334;2023-09-30T04:49:37;2.92;;;1.10;;
19059;SDS011;9663;48.996;8.334;2023-09-30T04:52:03;4.00;;;1.35;;
19059;SDS011;9663;48.996;8.334;2023-09-30T04:54:32;3.08;;;1.20;;
19059;SDS011;9663;48.996;8.334;2023-09-30T04:57:00;3.15;;;1.20;;
19059;SDS011;9663;48.996;8.334;2023-09-30T04:59:27;3.13;;;1.17;;
19059;SDS011;9663;48.996;8.334;2023-09-30T05:01:53;3.75;;;1.60;;
19059;SDS011;9663;48.996;8.334;2023-09-30T05:04:19;4.35;;;1.50;;
19059;SDS011;9663;48.996;8.334;2023-09-30T05:06:45;4.50;;;1.20;;
19059;SDS011;9663;48.996;8.334;2023-09-30T05:09:11;4.28;;;1.60;;
19059;SDS011;9663;48.996;8.334;2023-09-30T05:11:37;3.42;;;1.30;;
19059;SDS011;9663;48.996;8.334;2023-09-30T05:14:03;4.55;;;1.70;;
19059;SDS011;9663;48.996;8.334;2023-09-30T05:16:30;4.18;;;1.50;;
19059;SDS011;9663;48.996;8.334;2023-09-30T05:18:56;4.00;;;1.60;;
19059;SDS011;9663;48.996;8.334;2023-09-30T05:21:22;4.03;;;1.45;;
19059;SDS011;9663;48.996;8.334;2023-09-30T05:23:48;4.80;;;1.33;;
19059;SDS011;9663;48.996;8.334;2023-09-30T05:26:14;4.72;;;1.80;;
19059;SDS011;9663;48.996;8.334;2023-09-30T05:28:41;4.13;;;1.65;;
19059;SDS011;9663;48.996;8.334;2023-09-30T05:31:07;3.92;;;1.50;;
19059;SDS011;9663;48.996;8.334;2023-09-30T05:33:33;3.83;;;1.35;;
19059;SDS011;9663;48.996;8.334;2023-09-30T05:36:02;3.70;;;1.48;;
19059;SDS011;9663;48.996;8.334;2023-09-30T05:38:28;4.43;;;1.67;;
19059;SDS011;9663;48.996;8.334;2023-09-30T05:40:56;4.47;;;1.60;;
19059;SDS011;9663;48.996;8.334;2023-09-30T05:43:24;4.70;;;1.90;;
19059;SDS011;9663;48.996;8.334;2023-09-30T05:45:50;5.25;;;1.70;;
19059;SDS011;9663;48.996;8.334;2023-09-30T05:48:19;3.67;;;1.35;;
19059;SDS011;9663;48.996;8.334;2023-09-30T05:50:48;4.25;;;1.63;;
19059;SDS011;9663;48.996;8.334;2023-09-30T05:53:14;4.35;;;1.73;;
19059;SDS011;9663;48.996;8.334;2023-09-30T05:55:40;5.18;;;1.77;;
19059;SDS011;9663;48.996;8.334;2023-09-30T05:58:07;5.30;;;2.10;;
19059;SDS011;9663;48.996;8.334;2023-09-30T06:00:42;4.47;;;1.90;;
19059;SDS011;9663;48.996;8.334;2023-09-30T06:03:09;4.47;;;1.60;;
19059;SDS011;9663;48.996;8.334;2023-09-30T06:05:40;3.90;;;1.42;;
19059;SDS011;9663;48.996;8.334;2023-09-30T06:08:07;4.32;;;1.67;;
19059;SDS011;9663;48.996;8.334;2023-09-30T06:10:41;4.32;;;1.50;;
19059;SDS011;9663;48.996;8.334;2023-09-30T06:13:08;4.00;;;1.50;;
19059;SDS011;9663;48.996;8.334;2023-09-30T06:15:38;4.38;;;1.58;;
19059;SDS011;9663;48.996;8.334;2023-09-30T06:18:05;4.40;;;1.55;;
19059;SDS011;9663;48.996;8.334;2023-09-30T06:20:32;5.03;;;1.65;;
19059;SDS011;9663;48.996;8.334;2023-09-30T06:22:58;4.95;;;1.75;;
19059;SDS011;9663;48.996;8.334;2023-09-30T06:25:28;3.95;;;1.63;;
19059;SDS011;9663;48.996;8.334;2023-09-30T06:27:55;4.50;;;1.60;;
19059;SDS011;9663;48.996;8.334;2023-09-30T06:30:21;4.80;;;1.50;;
19059;SDS011;9663;48.996;8.334;2023-09-30T06:32:54;4.10;;;1.70;;
19059;SDS011;9663;48.996;8.334;2023-09-30T06:35:24;3.90;;;1.38;;
19059;SDS011;9663;48.996;8.334;2023-09-30T06:37:49;4.57;;;1.80;;
19059;SDS011;9663;48.996;8.334;2023-09-30T06:40:15;5.60;;;1.58;;
19059;SDS011;9663;48.996;8.334;2023-09-30T06:42:41;3.33;;;1.42;;
19059;SDS011;9663;48.996;8.334;2023-09-30T06:45:07;5.28;;;1.50;;
19059;SDS011;9663;48.996;8.334;2023-09-30T06:47:35;4.35;;;1.60;;
19059;SDS011;9663;48.996;8.334;2023-09-30T06:50:02;4.18;;;1.55;;
19059;SDS011;9663;48.996;8.334;2023-09-30T06:52:34;5.18;;;1.70;;
19059;SDS011;9663;48.996;8.334;2023-09-30T06:55:01;4.40;;;2.08;;
19059;SDS011;9663;48.996;8.334;2023-09-30T06:57:29;4.03;;;1.58;;
19059;SDS011;9663;48.996;8.334;2023-09-30T07:00:09;4.80;;;1.90;;
19059;SDS011;9663;48.996;8.334;2023-09-30T07:02:37;3.55;;;1.50;;
19059;SDS011;9663;48.996;8.334;2023-09-30T07:05:10;4.50;;;1.60;;
19059;SDS011;9663;48.996;8.334;2023-09-30T07:07:38;4.80;;;1.80;;
19059;SDS011;9663;48.996;8.334;2023-09-30T07:10:08;5.10;;;1.70;;
19059;SDS011;9663;48.996;8.334;2023-09-30T07:12:34;4.10;;;1.55;;
19059;SDS011;9663;48.996;8.334;2023-09-30T07:15:09;4.68;;;1.55;;
19059;SDS011;9663;48.996;8.334;2023-09-30T07:17:35;4.75;;;2.10;;
19059;SDS011;9663;48.996;8.334;2023-09-30T07:20:05;4.53;;;2.03;;
19059;SDS011;9663;48.996;8.334;2023-09-30T07:22:32;4.82;;;2.00;;
19059;SDS011;9663;48.996;8.334;2023-09-30T07:24:58;4.55;;;1.90;;
19059;SDS011;9663;48.996;8.334;2023-09-30T07:27:24;4.97;;;1.75;;
19059;SDS011;9663;48.996;8.334;2023-09-30T07:29:50;4.43;;;1.88;;
19059;SDS011;9663;48.996;8.334;2023-09-30T07:32:16;4.78;;;2.03;;
19059;SDS011;9663;48.996;8.334;2023-09-30T07:34:42;5.43;;;2.10;;
19059;SDS011;9663;48.996;8.334;2023-09-30T07:37:07;4.65;;;1.85;;
19059;SDS011;9663;48.996;8.334;2023-09-30T07:39:35;4.28;;;1.77;;
19059;SDS011;9663;48.996;8.334;2023-09-30T07:42:01;4.97;;;1.80;;
19059;SDS011;9663;48.996;8.334;2023-09-30T07:44:27;5.25;;;1.98;;
19059;SDS011;9663;48.996;8.334;2023-09-30T07:46:53;4.68;;;2.17;;
19059;SDS011;9663;48.996;8.334;2023-09-30T07:49:18;4.72;;;1.83;;
19059;SDS011;9663;48.996;8.334;2023-09-30T07:51:44;6.40;;;2.30;;
19059;SDS011;9663;48.996;8.334;2023-09-30T07:54:13;6.38;;;2.40;;
19059;SDS011;9663;48.996;8.334;2023-09-30T07:56:39;3.78;;;1.80;;
19059;SDS011;9663;48.996;8.334;2023-09-30T07:59:04;4.43;;;2.10;;
19059;SDS011;9663;48.996;8.334;2023-09-30T08:01:31;4.43;;;1.88;;
19059;SDS011;9663;48.996;8.334;2023-09-30T08:03:56;5.43;;;2.20;;
19059;SDS011;9663;48.996;8.334;2023-09-30T08:06:22;5.28;;;2.35;;
19059;SDS011;9663;48.996;8.334;2023-09-30T08:08:48;5.90;;;2.58;;
19059;SDS011;9663;48.996;8.334;2023-09-30T08:11:14;5.13;;;2.22;;
19059;SDS011;9663;48.996;8.334;2023-09-30T08:13:40;5.93;;;2.42;;
19059;SDS011;9663;48.996;8.334;2023-09-30T08:16:06;5.85;;;2.85;;
19059;SDS011;9663;48.996;8.334;2023-09-30T08:18:32;5.63;;;2.33;;
19059;SDS011;9663;48.996;8.334;2023-09-30T08:20:58;6.35;;;2.60;;
19059;SDS011;9663;48.996;8.334;2023-09-30T08:23:23;5.47;;;2.60;;
19059;SDS011;9663;48.996;8.334;2023-09-30T08:25:49;5.10;;;2.00;;
19059;SDS011;9663;48.996;8.334;2023-09-30T08:28:15;5.07;;;2.05;;
19059;SDS011;9663;48.996;8.334;2023-09-30T08:30:41;4.82;;;2.10;;
19059;SDS011;9663;48.996;8.334;2023-09-30T08:33:06;5.32;;;2.10;;
19059;SDS011;9663;48.996;8.334;2023-09-30T08:35:38;4.85;;;2.50;;
19059;SDS011;9663;48.996;8.334;2023-09-30T08:38:04;5.10;;;1.90;;
19059;SDS011;9663;48.996;8.334;2023-09-30T08:40:30;5.40;;;2.50;;
19059;SDS011;9663;48.996;8.334;2023-09-30T08:42:56;5.28;;;2.40;;
19059;SDS011;9663;48.996;8.334;2023-09-30T08:45:22;5.68;;;2.38;;
19059;SDS011;9663;48.996;8.334;2023-09-30T08:47:49;5.60;;;2.28;;
19059;SDS011;9663;48.996;8.334;2023-09-30T08:50:16;5.00;;;2.20;;
19059;SDS011;9663;48.996;8.334;2023-09-30T08:52:43;6.45;;;2.42;;
19059;SDS011;9663;48.996;8.334;2023-09-30T08:55:10;4.97;;;2.22;;
19059;SDS011;9663;48.996;8.334;2023-09-30T08:57:38;6.65;;;2.13;;
19059;SDS011;9663;48.996;8.334;2023-09-30T09:00:06;5.90;;;2.17;;
19059;SDS011;9663;48.996;8.334;2023-09-30T09:02:41;4.30;;;2.10;;
19059;SDS011;9663;48.996;8.334;2023-09-30T09:05:07;5.25;;;2.00;;
19059;SDS011;9663;48.996;8.334;2023-09-30T09:07:34;4.40;;;1.75;;
19059;SDS011;9663;48.996;8.334;2023-09-30T09:10:03;4.53;;;2.10;;
19059;SDS011;9663;48.996;8.334;2023-09-30T09:12:30;6.00;;;1.83;;
19059;SDS011;9663;48.996;8.334;2023-09-30T09:14:59;4.70;;;1.90;;
19059;SDS011;9663;48.996;8.334;2023-09-30T09:17:24;4.72;;;2.38;;
19059;SDS011;9663;48.996;8.334;2023-09-30T09:20:30;5.78;;;2.13;;
19059;SDS011;9663;48.996;8.334;2023-09-30T09:22:55;4.45;;;1.73;;
19059;SDS011;9663;48.996;8.334;2023-09-30T09:25:23;4.93;;;1.70;;
19059;SDS011;9663;48.996;8.334;2023-09-30T09:27:49;4.25;;;1.65;;
19059;SDS011;9663;48.996;8.334;2023-09-30T09:30:26;5.55;;;1.95;;
19059;SDS011;9663;48.996;8.334;2023-09-30T09:32:54;5.57;;;2.00;;
19059;SDS011;9663;48.996;8.334;2023-09-30T09:35:27;3.90;;;1.40;;
19059;SDS011;9663;48.996;8.334;2023-09-30T09:37:59;5.38;;;1.88;;
19059;SDS011;9663;48.996;8.334;2023-09-30T09:40:30;4.15;;;1.60;;
19059;SDS011;9663;48.996;8.334;2023-09-30T09:42:59;4.85;;;1.83;;
19059;SDS011;9663;48.996;8.334;2023-09-30T09:45:29;5.35;;;2.03;;
19059;SDS011;9663;48.996;8.334;2023-09-30T09:47:58;5.07;;;1.95;;
19059;SDS011;9663;48.996;8.334;2023-09-30T09:50:24;3.42;;;1.52;;
19059;SDS011;9663;48.996;8.334;2023-09-30T09:52:53;4.40;;;1.67;;
19059;SDS011;9663;48.996;8.334;2023-09-30T09:55:25;4.82;;;1.80;;
19059;SDS011;9663;48.996;8.334;2023-09-30T09:57:52;3.65;;;1.48;;
19059;SDS011;9663;48.996;8.334;2023-09-30T10:00:23;5.40;;;1.85;;
19059;SDS011;9663;48.996;8.334;2023-09-30T10:02:51;4.38;;;1.48;;
19059;SDS011;9663;48.996;8.334;2023-09-30T10:05:17;6.40;;;2.67;;
19059;SDS011;9663;48.996;8.334;2023-09-30T10:07:55;6.00;;;2.60;;
19059;SDS011;9663;48.996;8.334;2023-09-30T10:10:28;4.68;;;2.00;;
19059;SDS011;9663;48.996;8.334;2023-09-30T10:13:00;4.25;;;1.80;;
19059;SDS011;9663;48.996;8.334;2023-09-30T10:17:57;4.25;;;1.70;;
19059;SDS011;9663;48.996;8.334;2023-09-30T10:20:27;4.57;;;1.70;;
19059;SDS011;9663;48.996;8.334;2023-09-30T10:25:46;4.50;;;1.50;;
19059;SDS011;9663;48.996;8.334;2023-09-30T10:31:20;4.10;;;1.80;;
19059;SDS011;9663;48.996;8.334;2023-09-30T10:36:38;5.57;;;1.65;;
19059;SDS011;9663;48.996;8.334;2023-09-30T10:39:06;3.92;;;1.77;;
19059;SDS011;9663;48.996;8.334;2023-09-30T10:47:34;5.07;;;2.10;;
19059;SDS011;9663;48.996;8.334;2023-09-30T10:49:46;4.45;;;1.80;;
19059;SDS011;9663;48.996;8.334;2023-09-30T10:52:12;3.60;;;1.50;;
19059;SDS011;9663;48.996;8.334;2023-09-30T10:54:50;4.70;;;1.73;;
19059;SDS011;9663;48.996;8.334;2023-09-30T10:57:37;5.82;;;1.80;;
19059;SDS011;9663;48.996;8.334;2023-09-30T11:00:09;4.10;;;1.38;;
19059;SDS011;9663;48.996;8.334;2023-09-30T11:02:49;3.75;;;1.40;;
19059;SDS011;9663;48.996;8.334;2023-09-30T11:05:16;4.72;;;1.85;;
19059;SDS011;9663;48.996;8.334;2023-09-30T11:07:46;4.32;;;1.60;;
19059;SDS011;9663;48.996;8.334;2023-09-30T11:10:15;4.00;;;1.30;;
19059;SDS011;9663;48.996;8.334;2023-09-30T11:12:54;3.63;;;1.42;;
19059;SDS011;9663;48.996;8.334;2023-09-30T11:15:24;4.55;;;1.63;;
19059;SDS011;9663;48.996;8.334;2023-09-30T11:17:51;4.85;;;1.95;;
19059;SDS011;9663;48.996;8.334;2023-09-30T11:20:17;4.65;;;1.65;;
19059;SDS011;9663;48.996;8.334;2023-09-30T11:22:44;5.10;;;1.85;;
19059;SDS011;9663;48.996;8.334;2023-09-30T11:25:15;4.43;;;1.90;;
19059;SDS011;9663;48.996;8.334;2023-09-30T11:27:44;5.03;;;1.58;;
19059;SDS011;9663;48.996;8.334;2023-09-30T11:30:12;5.18;;;1.90;;
19059;SDS011;9663;48.996;8.334;2023-09-30T11:32:38;4.65;;;1.92;;
19059;SDS011;9663;48.996;8.334;2023-09-30T11:35:25;3.95;;;1.40;;
19059;SDS011;9663;48.996;8.334;2023-09-30T11:37:50;4.32;;;1.65;;
19059;SDS011;9663;48.996;8.334;2023-09-30T11:40:17;4.97;;;1.63;;
19059;SDS011;9663;48.996;8.334;2023-09-30T11:45:36;4.35;;;1.92;;
19059;SDS011;9663;48.996;8.334;2023-09-30T11:48:03;4.20;;;1.60;;
19059;SDS011;9663;48.996;8.334;2023-09-30T11:50:48;4.55;;;1.70;;
19059;SDS011;9663;48.996;8.334;2023-09-30T11:53:16;3.88;;;1.38;;
19059;SDS011;9663;48.996;8.334;2023-09-30T11:55:43;4.13;;;1.70;;
19059;SDS011;9663;48.996;8.334;2023-09-30T11:58:08;4.40;;;1.70;;
19059;SDS011;9663;48.996;8.334;2023-09-30T12:00:37;4.45;;;1.83;;
19059;SDS011;9663;48.996;8.334;2023-09-30T12:03:06;6.20;;;2.00;;
19059;SDS011;9663;48.996;8.334;2023-09-30T12:05:32;4.57;;;1.80;;
19059;SDS011;9663;48.996;8.334;2023-09-30T12:07:57;4.63;;;1.83;;
19059;SDS011;9663;48.996;8.334;2023-09-30T12:10:23;4.20;;;1.90;;
19059;SDS011;9663;48.996;8.334;2023-09-30T12:12:50;4.45;;;1.75;;
19059;SDS011;9663;48.996;8.334;2023-09-30T12:15:16;4.15;;;1.80;;
19059;SDS011;9663;48.996;8.334;2023-09-30T12:17:42;4.63;;;1.80;;
19059;SDS011;9663;48.996;8.334;2023-09-30T12:20:07;4.60;;;2.00;;
19059;SDS011;9663;48.996;8.334;2023-09-30T12:22:34;4.47;;;1.98;;
19059;SDS011;9663;48.996;8.334;2023-09-30T12:25:02;4.03;;;1.55;;
19059;SDS011;9663;48.996;8.334;2023-09-30T12:27:28;4.20;;;1.77;;
19059;SDS011;9663;48.996;8.334;2023-09-30T12:29:53;4.20;;;1.80;;
19059;SDS011;9663;48.996;8.334;2023-09-30T12:32:20;4.70;;;1.90;;
19059;SDS011;9663;48.996;8.334;2023-09-30T12:34:45;4.35;;;1.75;;
19059;SDS011;9663;48.996;8.334;2023-09-30T12:37:11;4.95;;;1.63;;
19059;SDS011;9663;48.996;8.334;2023-09-30T12:39:38;4.05;;;1.70;;
19059;SDS011;9663;48.996;8.334;2023-09-30T12:42:04;4.72;;;1.95;;
19059;SDS011;9663;48.996;8.334;2023-09-30T12:44:33;4.78;;;1.63;;
19059;SDS011;9663;48.996;8.334;2023-09-30T12:46:59;5.53;;;2.05;;
19059;SDS011;9663;48.996;8.334;2023-09-30T12:49:25;4.85;;;1.85;;
19059;SDS011;9663;48.996;8.334;2023-09-30T12:51:51;4.88;;;2.20;;
19059;SDS011;9663;48.996;8.334;2023-09-30T12:54:17;4.00;;;1.73;;
19059;SDS011;9663;48.996;8.334;2023-09-30T12:56:43;5.15;;;1.90;;
19059;SDS011;9663;48.996;8.334;2023-09-30T12:59:09;4.97;;;2.17;;
19059;SDS011;9663;48.996;8.334;2023-09-30T13:01:35;4.88;;;2.00;;
19059;SDS011;9663;48.996;8.334;2023-09-30T13:04:01;5.55;;;2.65;;
19059;SDS011;9663;48.996;8.334;2023-09-30T13:06:27;6.70;;;2.88;;
19059;SDS011;9663;48.996;8.334;2023-09-30T13:08:54;5.70;;;2.55;;
19059;SDS011;9663;48.996;8.334;2023-09-30T13:11:19;5.72;;;2.45;;
19059;SDS011;9663;48.996;8.334;2023-09-30T13:13:45;4.70;;;1.80;;
19059;SDS011;9663;48.996;8.334;2023-09-30T13:16:11;4.82;;;2.03;;
19059;SDS011;9663;48.996;8.334;2023-09-30T13:18:37;4.80;;;2.20;;
19059;SDS011;9663;48.996;8.334;2023-09-30T13:21:02;4.57;;;1.95;;
19059;SDS011;9663;48.996;8.334;2023-09-30T13:23:30;4.80;;;2.05;;
19059;SDS011;9663;48.996;8.334;2023-09-30T13:25:57;5.07;;;2.20;;
19059;SDS011;9663;48.996;8.334;2023-09-30T13:28:22;4.60;;;2.25;;
19059;SDS011;9663;48.996;8.334;2023-09-30T13:30:48;5.43;;;2.40;;
19059;SDS011;9663;48.996;8.334;2023-09-30T13:33:13;6.38;;;2.70;;
19059;SDS011;9663;48.996;8.334;2023-09-30T13:35:39;5.40;;;2.50;;
19059;SDS011;9663;48.996;8.334;2023-09-30T13:38:05;5.95;;;2.55;;
19059;SDS011;9663;48.996;8.334;2023-09-30T13:40:31;4.78;;;2.10;;
19059;SDS011;9663;48.996;8.334;2023-09-30T13:42:56;5.60;;;2.67;;
19059;SDS011;9663;48.996;8.334;2023-09-30T13:45:23;4.90;;;2.08;;
19059;SDS011;9663;48.996;8.334;2023-09-30T13:47:50;5.75;;;2.58;;
19059;SDS011;9663;48.996;8.334;2023-09-30T13:50:15;6.50;;;2.83;;
19059;SDS011;9663;48.996;8.334;2023-09-30T13:52:41;5.32;;;2.45;;
19059;SDS011;9663;48.996;8.334;2023-09-30T13:55:07;5.45;;;2.65;;
19059;SDS011;9663;48.996;8.334;2023-09-30T13:57:33;5.53;;;2.63;;
19059;SDS011;9663;48.996;8.334;2023-09-30T14:00:00;5.32;;;2.33;;
19059;SDS011;9663;48.996;8.334;2023-09-30T14:02:29;4.90;;;2.35;;
19059;SDS011;9663;48.996;8.334;2023-09-30T14:04:54;5.47;;;2.40;;
19059;SDS011;9663;48.996;8.334;2023-09-30T14:07:20;5.65;;;2.97;;
19059;SDS011;9663;48.996;8.334;2023-09-30T14:09:46;5.50;;;2.45;;
19059;SDS011;9663;48.996;8.334;2023-09-30T14:12:12;4.88;;;2.30;;
19059;SDS011;9663;48.996;8.334;2023-09-30T14:14:38;5.20;;;2.30;;
19059;SDS011;9663;48.996;8.334;2023-09-30T14:17:04;5.95;;;2.80;;
19059;SDS011;9663;48.996;8.334;2023-09-30T14:19:34;5.97;;;2.55;;
19059;SDS011;9663;48.996;8.334;2023-09-30T14:22:02;7.10;;;3.63;;
19059;SDS011;9663;48.996;8.334;2023-09-30T14:24:29;5.95;;;2.88;;
19059;SDS011;9663;48.996;8.334;2023-09-30T14:26:58;5.45;;;2.90;;
19059;SDS011;9663;48.996;8.334;2023-09-30T14:29:24;5.63;;;2.75;;
19059;SDS011;9663;48.996;8.334;2023-09-30T14:31:50;5.35;;;2.47;;
19059;SDS011;9663;48.996;8.334;2023-09-30T14:34:16;5.30;;;2.33;;
19059;SDS011;9663;48.996;8.334;2023-09-30T14:36:42;5.78;;;2.85;;
19059;SDS011;9663;48.996;8.334;2023-09-30T14:39:08;6.13;;;2.67;;
19059;SDS011;9663;48.996;8.334;2023-09-30T14:41:35;5.30;;;2.40;;
19059;SDS011;9663;48.996;8.334;2023-09-30T14:44:01;4.97;;;2.33;;
19059;SDS011;9663;48.996;8.334;2023-09-30T14:46:28;5.38;;;2.42;;
19059;SDS011;9663;48.996;8.334;2023-09-30T14:48:54;5.10;;;2.65;;
19059;SDS011;9663;48.996;8.334;2023-09-30T14:51:22;4.85;;;2.20;;
19059;SDS011;9663;48.996;8.334;2023-09-30T14:53:49;5.15;;;2.30;;
19059;SDS011;9663;48.996;8.334;2023-09-30T14:56:18;5.07;;;2.50;;
19059;SDS011;9663;48.996;8.334;2023-09-30T14:58:44;4.68;;;2.10;;
19059;SDS011;9663;48.996;8.334;2023-09-30T15:01:11;5.55;;;2.75;;
19059;SDS011;9663;48.996;8.334;2023-09-30T15:03:38;6.00;;;3.08;;
19059;SDS011;9663;48.996;8.334;2023-09-30T15:06:04;5.32;;;2.60;;
19059;SDS011;9663;48.996;8.334;2023-09-30T15:08:31;7.22;;;3.78;;
19059;SDS011;9663;48.996;8.334;2023-09-30T15:10:58;6.70;;;3.15;;
19059;SDS011;9663;48.996;8.334;2023-09-30T15:13:24;5.97;;;2.78;;
19059;SDS011;9663;48.996;8.334;2023-09-30T15:15:51;6.43;;;3.40;;
19059;SDS011;9663;48.996;8.334;2023-09-30T15:18:17;5.07;;;2.67;;
19059;SDS011;9663;48.996;8.334;2023-09-30T15:20:43;5.82;;;2.83;;